Time;durP1;ratioP1;P1;durP2;ratioP2;P2;SDS_P1;SDS_P2;PMS_P1;PMS_P2;Temp;Humidity;BMP_temperature;BMP_pressure;BME280_temperature;BME280_humidity;BME280_pressure;Samples;Min_cycle;Max_cycle;Signal;HPM_P1;HPM_P2
2022/09/04 00:02:34;;;;;;;9.27;4.10;;;;;;;20.49;72.33;100791.63;7360525;19;20018;-66
2022/09/04 00:05:30;;;;;;;9.32;4.22;;;;;;;20.48;73.00;100789.97;7363026;19;20021;-66
2022/09/04 00:08:34;;;;;;;7.85;4.07;;;;;;;20.45;72.81;100796.59;7368216;19;20735;-66
2022/09/04 00:11:13;;;;;;;11.27;4.15;;;;;;;20.45;72.76;100790.41;7379972;19;20387;-65
2022/09/04 00:13:45;;;;;;;7.97;3.75;;;;;;;20.44;72.41;100791.47;7377166;19;20018;-67
2022/09/04 00:16:27;;;;;;;7.93;3.20;;;;;;;20.43;72.17;100785.28;7382501;19;20018;-65
2022/09/04 00:19:02;;;;;;;5.90;3.07;;;;;;;20.44;72.56;100786.09;7378669;19;20023;-66
2022/09/04 00:21:35;;;;;;;8.90;3.70;;;;;;;20.43;72.50;100790.63;7376084;19;20471;-66
2022/09/04 00:24:07;;;;;;;8.07;3.70;;;;;;;20.44;72.19;100791.47;7379078;19;20478;-64
2022/09/04 00:26:55;;;;;;;8.82;3.90;;;;;;;20.45;72.13;100780.56;7382953;19;20022;-68
2022/09/04 00:29:57;;;;;;;7.60;3.70;;;;;;;20.45;72.06;100791.25;7379321;19;20298;-66
2022/09/04 00:32:28;;;;;;;9.38;4.10;;;;;;;20.44;72.14;100786.09;7377444;19;20695;-65
2022/09/04 00:35:30;;;;;;;7.78;4.07;;;;;;;20.43;72.22;100795.16;7374706;19;20011;-65
2022/09/04 00:38:31;;;;;;;8.75;5.18;;;;;;;20.42;73.45;100791.66;7382100;19;20470;-66
2022/09/04 00:41:42;;;;;;;8.00;3.63;;;;;;;20.44;73.58;100794.94;7381483;19;20014;-66
2022/09/04 00:44:29;;;;;;;8.48;3.58;;;;;;;20.44;73.36;100797.63;7379970;19;20406;-67
2022/09/04 00:47:26;;;;;;;10.52;3.78;;;;;;;20.43;73.57;100801.31;7381714;19;20531;-65
2022/09/04 00:50:41;;;;;;;7.40;3.65;;;;;;;20.42;73.18;100807.69;7380117;19;20025;-66
2022/09/04 00:53:23;;;;;;;11.50;3.88;;;;;;;20.41;73.87;100807.94;7378411;19;20010;-65
2022/09/04 00:56:17;;;;;;;8.88;4.35;;;;;;;20.43;74.35;100813.88;7380744;19;20424;-66
2022/09/04 00:59:00;;;;;;;11.70;4.67;;;;;;;20.42;73.91;100806.88;7381284;19;20452;-66
2022/09/04 01:01:28;;;;;;;10.13;4.60;;;;;;;20.41;73.55;100819.47;7380715;19;20347;-67
2022/09/04 01:04:16;;;;;;;7.80;4.30;;;;;;;20.42;73.70;100822.91;7385833;19;20098;-66
2022/09/04 01:07:01;;;;;;;11.55;4.82;;;;;;;20.42;73.79;100825.59;7385828;19;20015;-66
2022/09/04 01:10:07;;;;;;;10.07;4.47;;;;;;;20.39;73.97;100820.69;7388507;19;20677;-68
2022/09/04 01:12:56;;;;;;;8.52;4.20;;;;;;;20.36;73.83;100816.63;7388095;19;20474;-65
2022/09/04 01:15:33;;;;;;;8.50;4.82;;;;;;;20.33;74.07;100817.03;7388018;19;20010;-67
2022/09/04 01:18:28;;;;;;;8.57;4.28;;;;;;;20.32;74.28;100820.72;7390065;19;20018;-66
2022/09/04 01:21:14;;;;;;;8.93;4.68;;;;;;;20.28;74.23;100816.84;7386380;19;20022;-65
2022/09/04 01:24:06;;;;;;;9.27;4.50;;;;;;;20.26;74.42;100818.09;7386010;19;20021;-64
2022/09/04 01:26:36;;;;;;;10.63;4.60;;;;;;;20.23;74.70;100818.50;7388184;19;20448;-65
2022/09/04 01:29:19;;;;;;;10.05;4.80;;;;;;;20.22;74.99;100814.19;7385499;19;20033;-66
2022/09/04 01:31:54;;;;;;;11.35;5.18;;;;;;;20.21;75.37;100813.41;7388984;19;20433;-67
2022/09/04 01:34:34;;;;;;;8.85;4.47;;;;;;;20.21;75.31;100817.94;7384920;19;20082;-65
2022/09/04 01:37:27;;;;;;;10.02;4.57;;;;;;;20.21;74.94;100812.59;7383249;19;20018;-66
2022/09/04 01:40:29;;;;;;;12.02;5.05;;;;;;;20.19;75.37;100811.97;7384256;19;20017;-66
2022/09/04 01:43:22;;;;;;;11.90;5.00;;;;;;;20.16;75.48;100809.75;7387283;19;20011;-66
2022/09/04 01:46:01;;;;;;;9.82;4.70;;;;;;;20.17;75.45;100814.03;7387767;19;20035;-66
2022/09/04 01:48:51;;;;;;;8.52;4.70;;;;;;;20.18;75.97;100810.31;7386301;19;20022;-66
2022/09/04 01:51:33;;;;;;;10.93;4.97;;;;;;;20.17;75.26;100803.34;7378831;19;20014;-67
2022/09/04 01:54:30;;;;;;;10.73;4.70;;;;;;;20.16;75.29;100810.56;7384137;19;20467;-66
2022/09/04 01:57:09;;;;;;;11.98;4.90;;;;;;;20.16;75.61;100809.75;7386039;19;20339;-66
2022/09/04 01:59:42;;;;;;;10.68;4.68;;;;;;;20.16;75.16;100818.56;7385980;19;20018;-66
2022/09/04 02:02:19;;;;;;;10.77;5.00;;;;;;;20.15;75.01;100816.13;7385391;19;20018;-66
2022/09/04 02:04:57;;;;;;;8.55;4.85;;;;;;;20.15;75.91;100821.47;7378792;19;20355;-65
2022/09/04 02:07:35;;;;;;;11.57;4.63;;;;;;;20.15;75.34;100824.94;7387764;19;20542;-66
2022/09/04 02:10:09;;;;;;;8.52;4.38;;;;;;;20.16;75.22;100812.41;7384004;19;20384;-66
2022/09/04 02:13:01;;;;;;;11.63;4.05;;;;;;;20.15;74.90;100822.28;7385744;19;20098;-66
2022/09/04 02:15:42;;;;;;;7.13;4.57;;;;;;;20.16;74.83;100812.41;7382341;19;20041;-66
2022/09/04 02:18:30;;;;;;;10.95;4.57;;;;;;;20.15;74.77;100821.47;7385086;19;20035;-66
2022/09/04 02:21:22;;;;;;;11.18;4.55;;;;;;;20.15;75.02;100824.13;7380212;19;20387;-64
2022/09/04 02:24:15;;;;;;;7.15;4.72;;;;;;;20.19;75.30;100820.81;7382415;19;20023;-65
2022/09/04 02:26:59;;;;;;;9.55;5.28;;;;;;;20.20;74.94;100824.31;7386866;19;20387;-64
2022/09/04 02:29:35;;;;;;;10.40;5.75;;;;;;;20.19;74.83;100826.16;7383679;19;20123;-65
2022/09/04 02:32:24;;;;;;;8.45;5.13;;;;;;;20.20;75.38;100825.13;7386507;19;20113;-65
2022/09/04 02:34:56;;;;;;;10.27;5.82;;;;;;;20.20;76.26;100826.97;7380959;19;20022;-64
2022/09/04 02:37:54;;;;;;;13.05;6.20;;;;;;;20.20;76.14;100832.31;7385120;19;20045;-65
2022/09/04 02:40:31;;;;;;;9.45;6.40;;;;;;;20.19;76.53;100833.34;7382270;19;20011;-64
2022/09/04 02:42:58;;;;;;;12.93;6.55;;;;;;;20.17;76.80;100827.38;7386476;19;20030;-65
2022/09/04 02:45:58;;;;;;;12.90;7.07;;;;;;;20.17;77.13;100838.06;7383598;19;20014;-65
2022/09/04 02:48:56;;;;;;;14.57;8.55;;;;;;;20.17;77.76;100824.72;7380571;19;20071;-65
2022/09/04 02:51:37;;;;;;;12.88;7.55;;;;;;;20.14;77.83;100825.97;7380571;19;20295;-65
2022/09/04 02:54:07;;;;;;;15.27;7.68;;;;;;;20.14;78.21;100836.66;7384282;19;20025;-64
2022/09/04 02:56:42;;;;;;;14.48;8.07;;;;;;;20.16;78.54;100828.44;7385573;19;20017;-66
2022/09/04 02:59:43;;;;;;;15.27;9.55;;;;;;;20.19;79.87;100834.16;7383160;19;20038;-65
2022/09/04 03:02:33;;;;;;;14.38;8.68;;;;;;;20.18;79.40;100827.19;7382481;19;20025;-65
2022/09/04 03:05:07;;;;;;;18.10;10.02;;;;;;;20.17;79.57;100827.38;7376887;19;20022;-66
2022/09/04 03:07:39;;;;;;;16.33;10.50;;;;;;;20.16;79.98;100831.94;7384137;19;20018;-65
2022/09/04 03:10:06;;;;;;;;;;;;;;;20.16;80.25;100833.78;7382523;19;20483;-65
2022/09/04 03:12:46;;;;;;;21.00;11.18;;;;;;;20.11;80.51;100828.28;7386606;19;19918;-65
2022/09/04 03:15:34;;;;;;;17.90;10.70;;;;;;;20.12;81.22;100824.53;7384041;19;20014;-65
2022/09/04 03:18:16;;;;;;;19.45;12.95;;;;;;;20.11;81.86;100825.59;7386090;19;20328;-65
2022/09/04 03:21:00;;;;;;;19.30;11.60;;;;;;;20.12;81.82;100830.72;7383829;19;20019;-64
2022/09/04 03:23:51;;;;;;;20.50;11.60;;;;;;;20.11;81.79;100837.13;7384099;19;20021;-65
2022/09/04 03:26:26;;;;;;;19.48;11.77;;;;;;;20.11;81.97;100837.13;7382246;19;20011;-65
2022/09/04 03:29:23;;;;;;;17.20;11.60;;;;;;;20.10;82.34;100840.00;7382440;19;20455;-65
2022/09/04 03:32:13;;;;;;;19.30;11.77;;;;;;;20.10;82.65;100832.78;7384244;19;20011;-64
2022/09/04 03:35:01;;;;;;;23.13;12.88;;;;;;;20.11;83.29;100829.09;7379258;19;20029;-65
2022/09/04 03:37:58;;;;;;;20.67;12.73;;;;;;;20.11;83.35;100820.25;7382684;19;20021;-65
2022/09/04 03:40:34;;;;;;;19.30;12.00;;;;;;;20.12;83.55;100829.88;7378272;19;20006;-64
2022/09/04 03:43:07;;;;;;;22.27;13.60;;;;;;;20.12;83.63;100828.03;7385107;19;20022;-65
2022/09/04 03:46:07;;;;;;;23.15;12.15;;;;;;;20.13;84.02;100834.19;7385240;19;20371;-65
2022/09/04 03:48:53;;;;;;;23.25;12.77;;;;;;;20.12;84.22;100833.38;7384128;19;20015;-65
2022/09/04 03:51:32;;;;;;;19.95;12.18;;;;;;;20.11;84.08;100836.28;7381972;19;20613;-65
2022/09/04 03:54:07;;;;;;;18.80;12.45;;;;;;;20.13;84.51;100834.19;7382534;19;20269;-65
2022/09/04 03:57:06;;;;;;;19.55;13.20;;;;;;;20.13;84.52;100832.34;7382236;19;20144;-65
2022/09/04 03:59:43;;;;;;;20.20;12.30;;;;;;;20.12;84.51;100837.91;7381414;19;20022;-66
2022/09/04 04:02:19;;;;;;;20.23;12.25;;;;;;;20.10;85.02;100832.78;7384472;19;20018;-66
2022/09/04 04:04:59;;;;;;;24.58;13.98;;;;;;;20.11;84.83;100830.94;7376983;19;20022;-66
2022/09/04 04:07:25;;;;;;;25.27;13.70;;;;;;;20.08;85.30;100827.66;7385100;19;20455;-66
2022/09/04 04:09:58;;;;;;;21.98;13.48;;;;;;;20.07;85.48;100836.69;7384001;19;20006;-65
2022/09/04 04:12:43;;;;;;;;;;;;;;;20.10;85.66;100834.66;7382521;19;20026;-65
2022/09/04 04:15:32;;;;;;;23.05;13.43;;;;;;;20.02;85.54;100833.84;7383148;19;19930;-65
2022/09/04 04:18:46;;;;;;;20.92;12.90;;;;;;;20.01;85.85;100834.88;7383000;19;20018;-65
2022/09/04 04:21:53;;;;;;;27.10;14.60;;;;;;;19.98;86.41;100838.00;7378852;19;20367;-65
2022/09/04 04:24:53;;;;;;;26.40;14.52;;;;;;;19.95;86.16;100841.09;7377774;19;20014;-65
2022/09/04 04:27:37;;;;;;;26.23;15.45;;;;;;;19.94;87.04;100844.81;7380947;19;20018;-65
2022/09/04 04:30:11;;;;;;;28.45;16.67;;;;;;;19.97;87.34;100843.53;7379958;19;20087;-65
2022/09/04 04:32:51;;;;;;;23.35;15.07;;;;;;;19.97;87.28;100843.53;7382440;19;20021;-65
2022/09/04 04:35:37;;;;;;;27.67;15.40;;;;;;;19.94;87.30;100846.66;7377276;19;20011;-64
2022/09/04 04:38:19;;;;;;;25.52;15.25;;;;;;;19.92;87.67;100846.03;7389730;19;20018;-65
2022/09/04 04:40:51;;;;;;;27.67;15.82;;;;;;;19.92;87.66;100846.03;7391179;19;20038;-65
2022/09/04 04:43:30;;;;;;;23.35;14.50;;;;;;;19.91;87.62;100849.75;7390216;19;20010;-65
2022/09/04 04:46:03;;;;;;;29.52;18.48;;;;;;;19.90;88.16;100842.78;7390317;19;20014;-65
2022/09/04 04:49:08;;;;;;;30.65;17.30;;;;;;;19.93;88.40;100845.00;7388216;19;20018;-65
2022/09/04 04:51:39;;;;;;;25.90;14.80;;;;;;;19.93;88.50;100840.50;7383800;19;20011;-65
2022/09/04 04:54:24;;;;;;;25.52;14.30;;;;;;;19.94;88.57;100846.66;7384969;19;20057;-65
2022/09/04 04:57:19;;;;;;;25.42;14.45;;;;;;;19.95;88.74;100846.44;7385913;19;20014;-66
2022/09/04 05:00:18;;;;;;;20.77;13.48;;;;;;;19.96;89.14;100850.72;7384501;19;20015;-65
2022/09/04 05:03:31;;;;;;;20.58;12.85;;;;;;;19.96;88.64;100855.28;7390106;19;20487;-65
2022/09/04 05:05:57;;;;;;;23.73;14.20;;;;;;;19.96;89.37;100861.41;7385458;19;20026;-64
2022/09/04 05:08:40;;;;;;;25.75;15.52;;;;;;;19.96;89.50;100861.41;7389091;19;20015;-64
2022/09/04 05:12:02;;;;;;;23.20;14.30;;;;;;;19.98;89.73;100859.38;7389382;19;20014;-66
2022/09/04 05:14:41;;;;;;;26.10;14.50;;;;;;;19.98;89.27;100864.72;7383290;19;20045;-65
2022/09/04 05:17:26;;;;;;;27.63;14.48;;;;;;;19.99;89.37;100861.00;7386497;19;20014;-66
2022/09/04 05:20:25;;;;;;;30.50;14.57;;;;;;;20.00;89.69;100873.34;7380330;19;20541;-66
2022/09/04 05:23:08;;;;;;;28.98;16.77;;;;;;;20.03;90.07;100872.06;7388629;19;20359;-67
2022/09/04 05:25:34;;;;;;;26.98;14.93;;;;;;;20.04;90.43;100871.88;7385000;19;20344;-66
2022/09/04 05:28:21;;;;;;;23.90;14.88;;;;;;;20.04;89.76;100874.53;7387392;19;20021;-66
2022/09/04 05:30:57;;;;;;;23.85;13.38;;;;;;;20.05;89.76;100878.03;7386829;19;20595;-66
2022/09/04 05:33:59;;;;;;;21.67;13.07;;;;;;;20.05;89.60;100872.69;7386574;19;20015;-65
2022/09/04 05:36:36;;;;;;;20.63;12.73;;;;;;;20.05;89.74;100876.19;7381638;19;20014;-65
2022/09/04 05:39:08;;;;;;;22.48;11.93;;;;;;;20.05;89.59;100878.03;7387138;19;20024;-65
2022/09/04 05:42:05;;;;;;;21.42;13.05;;;;;;;20.05;89.70;100889.56;7389351;19;20070;-66
2022/09/04 05:44:57;;;;;;;21.08;12.10;;;;;;;20.07;89.72;100889.31;7387100;19;20019;-65
2022/09/04 05:47:33;;;;;;;22.27;11.55;;;;;;;20.07;89.59;100882.13;7388982;19;20019;-66
2022/09/04 05:50:19;;;;;;;18.05;10.98;;;;;;;20.08;89.40;100886.44;7384833;19;20006;-65
2022/09/04 05:53:37;;;;;;;23.00;10.55;;;;;;;20.11;89.26;100895.06;7389028;19;20077;-66
2022/09/04 05:56:31;;;;;;;17.00;9.75;;;;;;;20.10;89.24;100901.44;7381873;19;20019;-66
2022/09/04 05:59:13;;;;;;;21.23;10.85;;;;;;;20.10;89.32;100901.44;7384518;19;20022;-65
2022/09/04 06:02:00;;;;;;;18.23;9.35;;;;;;;20.12;89.28;100907.38;7384989;19;20078;-65
2022/09/04 06:04:47;;;;;;;15.65;8.85;;;;;;;20.15;88.96;100920.34;7382713;19;20038;-65
2022/09/04 06:07:26;;;;;;;15.63;9.00;;;;;;;20.17;88.68;100910.22;7386328;19;20388;-64
2022/09/04 06:10:17;;;;;;;16.52;8.82;;;;;;;20.16;88.40;100914.78;7386412;19;20082;-65
2022/09/04 06:12:50;;;;;;;12.18;7.32;;;;;;;20.17;88.40;100920.91;7386616;19;20518;-66
2022/09/04 06:15:47;;;;;;;17.65;8.00;;;;;;;20.19;88.26;100921.53;7385022;19;20412;-66
2022/09/04 06:19:02;;;;;;;14.02;7.53;;;;;;;20.20;88.13;100929.34;7388756;19;20494;-65
2022/09/04 06:21:53;;;;;;;15.35;7.90;;;;;;;20.22;87.90;100927.25;7382003;19;20630;-66
2022/09/04 06:24:53;;;;;;;12.88;7.22;;;;;;;20.23;87.98;100934.25;7382401;19;20019;-65
2022/09/04 06:27:27;;;;;;;14.45;6.47;;;;;;;20.21;87.91;100930.19;7384656;19;20025;-66
2022/09/04 06:30:09;;;;;;;14.98;6.95;;;;;;;20.23;87.77;100938.78;7384498;19;20367;-66
2022/09/04 06:32:42;;;;;;;12.93;6.63;;;;;;;20.24;87.66;100938.56;7385424;19;20078;-65
2022/09/04 06:35:42;;;;;;;14.82;5.72;;;;;;;20.25;87.42;100932.19;7378475;19;20033;-64
2022/09/04 06:38:35;;;;;;;11.25;6.60;;;;;;;20.27;87.14;100939.97;7384127;19;20022;-66
2022/09/04 06:41:07;;;;;;;9.40;5.38;;;;;;;20.28;86.68;100944.31;7386612;19;20010;-67
2022/09/04 06:44:03;;;;;;;11.07;5.80;;;;;;;20.29;86.16;100933.41;7384530;19;20278;-67
2022/09/04 06:47:09;;;;;;;9.23;5.63;;;;;;;20.31;86.13;100934.06;7386385;19;20014;-67
2022/09/04 06:50:00;;;;;;;9.77;4.70;;;;;;;20.31;85.97;100935.91;7381801;19;20022;-67
2022/09/04 06:52:39;;;;;;;7.35;4.72;;;;;;;20.31;85.98;100942.06;7386487;19;20024;-67
2022/09/04 06:55:20;;;;;;;11.13;4.68;;;;;;;20.32;86.10;100933.00;7384831;19;20015;-66
2022/09/04 06:58:17;;;;;;;9.45;4.68;;;;;;;20.36;85.17;100941.44;7383700;19;20018;-65
2022/09/04 07:00:52;;;;;;;7.75;3.78;;;;;;;20.36;84.96;100950.28;7382011;19;20353;-66
2022/09/04 07:03:45;;;;;;;8.07;3.45;;;;;;;20.38;84.97;100944.69;7382247;19;20367;-66
2022/09/04 07:06:29;;;;;;;9.52;4.10;;;;;;;20.40;84.70;100948.00;7376524;19;20017;-65
2022/09/04 07:09:29;;;;;;;10.25;3.00;;;;;;;20.41;84.66;100947.78;7387151;19;20042;-67
2022/09/04 07:12:18;;;;;;;9.63;4.20;;;;;;;20.41;83.93;100944.28;7385410;19;20014;-67
2022/09/04 07:14:54;;;;;;;6.65;3.20;;;;;;;20.43;84.45;100951.03;7379063;19;20010;-66
2022/09/04 07:17:38;;;;;;;10.00;3.25;;;;;;;20.45;83.82;100950.84;7383030;19;20380;-66
2022/09/04 07:20:26;;;;;;;10.90;3.22;;;;;;;20.47;84.07;100956.78;7380078;19;20467;-65
2022/09/04 07:23:08;;;;;;;11.30;3.40;;;;;;;20.52;83.38;100964.19;7378241;19;20025;-67
2022/09/04 07:26:02;;;;;;;8.02;3.00;;;;;;;20.52;83.65;100964.97;7380918;19;20212;-65
2022/09/04 07:28:55;;;;;;;7.22;1.98;;;;;;;20.53;82.76;100961.25;7383320;19;20022;-66
2022/09/04 07:31:33;;;;;;;7.85;3.00;;;;;;;20.55;83.04;100969.91;7381176;19;20035;-65
2022/09/04 07:34:07;;;;;;;7.45;2.05;;;;;;;20.58;83.21;100972.13;7384335;19;20502;-65
2022/09/04 07:37:04;;;;;;;6.35;1.70;;;;;;;20.62;82.82;100973.34;7383031;19;20542;-66
2022/09/04 07:39:46;;;;;;;9.40;1.88;;;;;;;20.62;82.03;100975.22;7382229;19;20011;-66
2022/09/04 07:42:29;;;;;;;5.15;1.40;;;;;;;20.63;81.52;100980.34;7385183;19;20014;-65
2022/09/04 07:45:21;;;;;;;3.70;1.30;;;;;;;20.67;81.46;100984.22;7379375;19;20038;-66
2022/09/04 07:48:33;;;;;;;6.13;1.65;;;;;;;20.70;80.96;100985.66;7382183;19;20025;-66
2022/09/04 07:51:09;;;;;;;3.00;1.30;;;;;;;20.73;80.92;100990.56;7379201;19;20588;-66
2022/09/04 07:54:06;;;;;;;5.05;1.00;;;;;;;20.76;80.73;100988.28;7382070;19;20011;-67
2022/09/04 07:57:15;;;;;;;4.63;1.00;;;;;;;20.81;80.27;100990.31;7379883;19;20003;-67
2022/09/04 07:59:54;;;;;;;5.88;0.90;;;;;;;20.86;79.41;100991.31;7380087;19;20028;-67
2022/09/04 08:02:36;;;;;;;7.70;1.20;;;;;;;20.89;79.12;100990.88;7382848;19;20018;-65
2022/09/04 08:05:06;;;;;;;2.90;1.08;;;;;;;20.92;79.17;100995.81;7374076;19;20018;-66
2022/09/04 08:07:32;;;;;;;6.90;1.70;;;;;;;20.94;79.55;100984.88;7384049;19;20563;-66
2022/09/04 08:10:20;;;;;;;4.38;0.80;;;;;;;20.98;79.73;100991.41;7383790;19;20312;-66
2022/09/04 08:13:19;;;;;;;1.75;0.55;;;;;;;21.02;78.68;100994.50;7381782;19;20420;-66
2022/09/04 08:16:04;;;;;;;2.92;0.70;;;;;;;21.04;78.73;100992.41;7381554;19;20017;-65
2022/09/04 08:18:51;;;;;;;5.47;0.80;;;;;;;21.05;78.21;100996.72;7381987;19;20025;-65
2022/09/04 08:21:24;;;;;;;6.43;0.80;;;;;;;21.07;78.07;100992.81;7379217;19;20081;-65
2022/09/04 08:24:06;;;;;;;;;;;;;;;21.10;78.65;100995.03;7383208;19;20021;-65
2022/09/04 08:27:01;;;;;;;4.10;1.10;;;;;;;21.11;78.67;101006.56;7381725;19;19923;-65
2022/09/04 08:29:38;;;;;;;4.50;0.90;;;;;;;21.16;78.40;101006.78;7361464;19;21059;-66
2022/09/04 08:32:36;;;;;;;3.83;0.50;;;;;;;21.19;77.98;101003.66;7370180;19;20018;-66
2022/09/04 08:35:30;;;;;;;6.63;0.90;;;;;;;21.21;77.82;101013.13;7377498;19;20098;-66
2022/09/04 08:38:07;;;;;;;;;;;;;;;21.20;77.36;101008.78;7380161;19;20017;-65
2022/09/04 08:41:05;;;;;;;3.20;0.57;;;;;;;21.22;77.48;101016.63;7381382;19;19937;-66
2022/09/04 08:43:35;;;;;;;3.78;0.65;;;;;;;21.23;76.97;101019.06;7379868;19;20594;-65
2022/09/04 08:46:23;;;;;;;5.43;1.00;;;;;;;21.25;77.30;101019.66;7376378;19;20461;-66
2022/09/04 08:49:31;;;;;;;6.03;1.10;;;;;;;21.31;77.11;101021.47;7379048;19;20018;-65
2022/09/04 08:52:23;;;;;;;5.20;0.60;;;;;;;21.34;76.21;101026.38;7378573;19;20024;-65
2022/09/04 08:55:00;;;;;;;5.93;0.65;;;;;;;21.37;76.02;101024.31;7378094;19;20013;-65
2022/09/04 08:57:46;;;;;;;4.38;0.93;;;;;;;21.41;76.09;101029.03;7378459;19;20485;-64
2022/09/04 09:00:15;;;;;;;2.75;0.57;;;;;;;21.44;75.27;101025.06;7377647;19;20385;-66
2022/09/04 09:03:34;;;;;;;3.28;0.50;;;;;;;21.51;74.74;101039.22;7381086;19;20010;-64
2022/09/04 09:06:08;;;;;;;4.75;0.60;;;;;;;21.53;74.87;101039.84;7375728;19;20018;-65
2022/09/04 09:08:56;;;;;;;5.72;0.80;;;;;;;21.57;74.51;101049.06;7381416;19;20306;-65
2022/09/04 09:11:42;;;;;;;2.75;0.60;;;;;;;21.60;74.80;101048.63;7379566;19;20133;-64
2022/09/04 09:14:37;;;;;;;5.53;0.80;;;;;;;21.62;74.69;101047.38;7378921;19;20017;-65
2022/09/04 09:17:24;;;;;;;5.05;0.70;;;;;;;21.64;75.13;101053.31;7380197;19;20365;-66
2022/09/04 09:20:21;;;;;;;4.95;0.80;;;;;;;21.66;75.37;101056.63;7376079;19;20524;-65
2022/09/04 09:23:32;;;;;;;6.82;0.93;;;;;;;21.65;74.71;101065.69;7382535;19;20014;-65
2022/09/04 09:26:05;;;;;;;5.20;0.70;;;;;;;21.67;74.58;101071.66;7384628;19;20703;-65
2022/09/04 09:28:44;;;;;;;4.93;0.60;;;;;;;21.68;74.45;101069.78;7386812;19;20015;-66
2022/09/04 09:31:49;;;;;;;4.07;0.63;;;;;;;21.72;74.43;101084.38;7384559;19;20017;-67
2022/09/04 09:35:00;;;;;;;6.78;0.50;;;;;;;21.74;73.96;101076.94;7380387;19;20456;-66
2022/09/04 09:38:04;;;;;;;6.47;0.60;;;;;;;21.75;73.82;101084.75;7388220;19;20006;-66
2022/09/04 09:40:46;;;;;;;7.10;0.70;;;;;;;21.77;74.01;101089.91;7386414;19;20824;-66
2022/09/04 09:43:57;;;;;;;5.18;0.77;;;;;;;21.77;73.43;101088.06;7385179;19;20369;-66
2022/09/04 09:46:57;;;;;;;3.28;0.55;;;;;;;21.80;72.54;101086.78;7384807;19;20565;-65
2022/09/04 09:49:48;;;;;;;2.30;0.45;;;;;;;21.84;71.91;101101.38;7384458;19;20431;-66
2022/09/04 09:52:46;;;;;;;7.05;0.63;;;;;;;21.86;72.07;101096.63;7385580;19;20022;-66
2022/09/04 09:55:47;;;;;;;5.60;0.65;;;;;;;21.87;71.99;101092.91;7386099;19;20038;-64
2022/09/04 09:58:43;;;;;;;6.65;0.80;;;;;;;21.89;71.80;101101.53;7386043;19;20289;-65
2022/09/04 10:01:35;;;;;;;5.65;0.63;;;;;;;21.92;73.15;101101.09;7384107;19;20462;-65
2022/09/04 10:04:13;;;;;;;4.13;0.80;;;;;;;21.91;71.93;101102.13;7386520;19;20341;-66
2022/09/04 10:06:55;;;;;;;3.70;0.40;;;;;;;21.94;71.25;101101.72;7383008;19;20098;-67
2022/09/04 10:09:40;;;;;;;6.13;0.82;;;;;;;21.96;72.06;101105.00;7383970;19;20572;-66
2022/09/04 10:12:35;;;;;;;5.28;0.70;;;;;;;21.99;72.38;101099.19;7385402;19;20494;-66
2022/09/04 10:15:20;;;;;;;5.97;0.65;;;;;;;22.03;72.71;101108.47;7384398;19;20018;-66
2022/09/04 10:18:25;;;;;;;4.55;0.60;;;;;;;22.07;72.17;101096.25;7387559;19;20006;-67
2022/09/04 10:21:11;;;;;;;4.00;0.50;;;;;;;22.13;72.82;101099.91;7383241;19;20013;-66
2022/09/04 10:23:57;;;;;;;8.20;0.70;;;;;;;22.18;72.41;101097.38;7386500;19;20011;-66
2022/09/04 10:26:51;;;;;;;6.45;0.65;;;;;;;22.21;72.11;101102.28;7385621;19;20399;-66
2022/09/04 10:29:38;;;;;;;6.65;0.77;;;;;;;22.23;71.31;101102.88;7384395;19;20017;-67
2022/09/04 10:32:19;;;;;;;4.43;0.73;;;;;;;22.25;70.40;101111.50;7389213;19;20507;-69
2022/09/04 10:35:13;;;;;;;4.30;0.80;;;;;;;22.25;69.13;101108.84;7381577;19;20015;-67
2022/09/04 10:38:01;;;;;;;3.58;0.70;;;;;;;22.28;69.34;101105.72;7384409;19;20014;-66
2022/09/04 10:40:42;;;;;;;7.13;0.80;;;;;;;22.31;68.87;101112.50;7384225;19;20683;-66
2022/09/04 10:43:16;;;;;;;6.30;0.50;;;;;;;22.32;68.84;101114.97;7385424;19;20444;-66
2022/09/04 10:45:56;;;;;;;2.70;0.77;;;;;;;22.36;68.87;101115.31;7382298;19;20015;-66
2022/09/04 10:48:43;;;;;;;1.85;0.52;;;;;;;22.39;68.03;101112.22;7380323;19;20026;-67
2022/09/04 10:51:20;;;;;;;4.82;0.70;;;;;;;22.40;67.75;101113.84;7378765;19;20022;-67
2022/09/04 10:53:53;;;;;;;6.97;0.60;;;;;;;22.41;68.37;101116.28;7384431;19;20025;-66
2022/09/04 10:56:35;;;;;;;3.17;0.52;;;;;;;22.42;68.16;101119.78;7381625;19;20010;-67
2022/09/04 10:59:37;;;;;;;5.70;0.60;;;;;;;22.42;67.59;101126.00;7381493;19;20357;-67
2022/09/04 11:02:09;;;;;;;3.05;0.50;;;;;;;22.45;68.24;101120.16;7380051;19;20022;-66
2022/09/04 11:05:13;;;;;;;4.30;0.85;;;;;;;22.47;67.82;101118.09;7379758;19;20499;-66
2022/09/04 11:08:08;;;;;;;3.30;0.55;;;;;;;22.49;68.23;101123.25;7380511;19;20010;-67
2022/09/04 11:11:12;;;;;;;4.43;0.50;;;;;;;22.52;67.85;101112.88;7381419;19;20414;-66
2022/09/04 11:14:13;;;;;;;3.60;0.40;;;;;;;22.58;67.43;101121.88;7382012;19;20942;-67
2022/09/04 11:17:07;;;;;;;4.25;0.68;;;;;;;22.63;67.77;101116.66;7386654;19;20340;-66
2022/09/04 11:20:02;;;;;;;5.97;0.57;;;;;;;22.69;68.46;101117.63;7383327;19;20018;-66
2022/09/04 11:22:37;;;;;;;3.08;0.60;;;;;;;22.73;68.35;101117.00;7387901;19;20449;-67
2022/09/04 11:25:43;;;;;;;7.53;0.70;;;;;;;22.80;68.16;101124.97;7385794;19;20021;-67
2022/09/04 11:28:46;;;;;;;3.85;0.55;;;;;;;22.85;67.54;101119.75;7382837;19;20050;-66
2022/09/04 11:31:34;;;;;;;;;;;;;;;22.87;67.50;101123.00;7386350;19;20026;-66
2022/09/04 11:34:47;;;;;;;3.42;0.60;;;;;;;22.87;67.34;101125.69;7382090;19;19930;-66
2022/09/04 11:37:55;;;;;;;5.60;0.50;;;;;;;22.88;67.22;101130.00;7379714;19;20032;-66
2022/09/04 11:40:57;;;;;;;3.78;0.60;;;;;;;22.88;67.79;101136.19;7378033;19;20041;-66
2022/09/04 11:43:43;;;;;;;6.53;0.93;;;;;;;22.91;67.31;101129.53;7381397;19;20019;-66
2022/09/04 11:46:25;;;;;;;3.13;0.45;;;;;;;22.91;67.18;101127.69;7381052;19;20078;-67
2022/09/04 11:49:17;;;;;;;8.93;0.93;;;;;;;22.95;67.14;101118.16;7379856;19;20090;-66
2022/09/04 11:52:07;;;;;;;6.25;0.60;;;;;;;23.00;67.68;101128.22;7375875;19;21096;-66
2022/09/04 11:54:53;;;;;;;4.47;0.90;;;;;;;23.01;68.00;101127.13;7382734;19;20014;-66
2022/09/04 11:57:55;;;;;;;2.65;0.60;;;;;;;23.00;67.17;101131.72;7377273;19;20294;-66
2022/09/04 12:00:23;;;;;;;5.43;1.45;;;;;;;23.00;67.07;101136.25;7362520;19;20014;-68
2022/09/04 12:03:12;;;;;;;3.42;0.70;;;;;;;22.97;67.02;101136.69;7370092;19;20014;-66
2022/09/04 12:05:51;;;;;;;5.05;0.77;;;;;;;22.94;66.91;101129.94;7373226;19;20018;-66
2022/09/04 12:08:37;;;;;;;5.15;0.88;;;;;;;22.95;67.84;101126.22;7375450;19;20451;-66
2022/09/04 12:11:30;;;;;;;4.20;0.60;;;;;;;22.98;67.96;101132.97;7374318;19;20486;-66
2022/09/04 12:14:08;;;;;;;4.55;0.70;;;;;;;22.99;67.91;101134.63;7374379;19;20020;-66
2022/09/04 12:16:53;;;;;;;4.65;0.70;;;;;;;23.03;67.69;101133.13;7375618;19;20348;-66
2022/09/04 12:19:41;;;;;;;9.13;1.02;;;;;;;23.06;68.04;101138.00;7376166;19;20022;-66
2022/09/04 12:22:36;;;;;;;4.32;0.68;;;;;;;23.13;67.76;101136.06;7378695;19;20479;-66
2022/09/04 12:25:43;;;;;;;7.65;0.85;;;;;;;23.14;66.67;101140.41;7376831;19;20018;-66
2022/09/04 12:28:33;;;;;;;6.30;0.80;;;;;;;23.15;67.05;101136.69;7375934;19;20429;-65
2022/09/04 12:31:45;;;;;;;7.20;0.60;;;;;;;23.12;66.39;101137.13;7381123;19;20505;-66
2022/09/04 12:34:41;;;;;;;9.65;0.70;;;;;;;23.16;66.64;101138.28;7381090;19;20014;-66
2022/09/04 12:37:15;;;;;;;4.13;0.60;;;;;;;23.15;66.48;101128.63;7370345;19;20472;-65
2022/09/04 12:39:55;;;;;;;5.85;0.60;;;;;;;23.15;66.37;101133.16;7376189;19;20015;-66
2022/09/04 12:43:16;;;;;;;8.85;0.70;;;;;;;23.12;66.74;101137.13;7374927;19;20023;-65
2022/09/04 12:46:09;;;;;;;3.88;0.50;;;;;;;23.13;66.10;101135.25;7371145;19;20115;-65
2022/09/04 12:49:02;;;;;;;4.75;0.52;;;;;;;23.10;66.61;101141.09;7375134;19;20498;-65
2022/09/04 12:51:52;;;;;;;4.68;0.52;;;;;;;23.10;66.63;101138.41;7376179;19;20041;-64
2022/09/04 12:54:37;;;;;;;4.20;0.60;;;;;;;23.11;67.01;101140.84;7377902;19;20341;-65
2022/09/04 12:57:25;;;;;;;5.82;0.63;;;;;;;23.08;66.91;101146.69;7374653;19;20597;-64